Time;durP1;ratioP1;P1;durP2;ratioP2;P2;SDS_P1;SDS_P2;PMS_P1;PMS_P2;Temp;Humidity;BMP_temperature;BMP_pressure;BME280_temperature;BME280_humidity;BME280_pressure;Samples;Min_cycle;Max_cycle;Signal;HPM_P1;HPM_P2
2022/05/20 00:00:19;;;;;;;4.82;2.05;;;;;;;20.09;68.94;101448.97;5105090;27;20576;-74
2022/05/20 00:02:46;;;;;;;6.63;2.13;;;;;;;20.40;67.63;101453.53;5106935;27;20412;-74
2022/05/20 00:05:12;;;;;;;4.15;2.00;;;;;;;20.00;69.09;101460.34;5107043;27;20152;-74
2022/05/20 00:07:39;;;;;;;6.20;2.15;;;;;;;20.07;69.09;101456.22;5107219;28;20081;-74
2022/05/20 00:10:07;;;;;;;5.40;2.05;;;;;;;19.81;69.95;101455.63;5106207;27;20058;-74
2022/05/20 00:12:33;;;;;;;5.95;1.90;;;;;;;19.72;70.24;101468.84;5105609;27;20507;-73
2022/05/20 00:15:01;;;;;;;7.82;2.22;;;;;;;19.88;69.89;101464.81;5107131;28;20100;-73
2022/05/20 00:17:27;;;;;;;4.82;2.50;;;;;;;19.91;69.75;101471.75;5106253;28;20116;-73
2022/05/20 00:19:54;;;;;;;6.15;2.10;;;;;;;19.89;70.12;101469.19;5105918;27;20124;-74
2022/05/20 00:22:20;;;;;;;5.30;2.00;;;;;;;19.99;69.46;101466.66;5106613;28;20101;-74
2022/05/20 00:27:30;;;;;;;5.32;2.50;;;;;;;19.89;70.15;101473.66;5104236;27;20483;-74
2022/05/20 00:29:57;;;;;;;8.23;3.85;;;;;;;19.70;70.71;101476.06;5106163;27;20071;-74
2022/05/20 00:32:25;;;;;;;7.60;2.80;;;;;;;19.97;69.91;101465.91;5106589;28;20503;-74
2022/05/20 00:34:51;;;;;;;5.47;2.17;;;;;;;19.62;71.31;101474.00;5122109;27;20047;-74
2022/05/20 00:37:18;;;;;;;9.07;2.95;;;;;;;19.80;71.07;101464.59;5106472;27;20055;-73
2022/05/20 00:39:44;;;;;;;5.93;2.80;;;;;;;19.94;70.68;101471.50;5105411;27;20047;-73
2022/05/20 00:42:13;;;;;;;4.35;2.58;;;;;;;19.92;70.41;101478.72;5101314;27;20085;-73
2022/05/20 00:44:39;;;;;;;5.60;2.50;;;;;;;20.11;69.54;101471.00;5105667;27;20044;-73
2022/05/20 00:47:06;;;;;;;5.45;2.58;;;;;;;19.78;71.01;101476.31;5105595;27;20421;-73
2022/05/20 00:49:36;;;;;;;6.28;3.55;;;;;;;19.81;71.26;101479.59;5106009;27;20715;-73
2022/05/20 00:52:05;;;;;;;5.88;3.08;;;;;;;19.85;70.86;101489.03;5105949;27;20044;-73
2022/05/20 00:54:36;;;;;;;5.95;3.22;;;;;;;19.72;72.03;101490.13;5107932;27;20097;-73
2022/05/20 00:57:07;;;;;;;6.95;3.33;;;;;;;20.05;70.74;101497.25;5106098;27;20067;-73
2022/05/20 00:59:37;;;;;;;7.95;3.30;;;;;;;19.89;70.92;101508.25;5104173;27;20096;-73
2022/05/20 01:02:07;;;;;;;8.27;4.57;;;;;;;20.10;70.84;101503.06;5106260;27;20063;-73
2022/05/20 01:04:36;;;;;;;7.28;4.60;;;;;;;19.46;73.32;101515.22;5119048;27;20460;-73
2022/05/20 01:07:03;;;;;;;7.93;5.00;;;;;;;19.42;73.51;101511.94;5131076;27;20135;-73
2022/05/20 01:09:30;;;;;;;8.88;5.50;;;;;;;19.59;72.97;101514.16;5131814;27;20055;-73
2022/05/20 01:11:56;;;;;;;10.38;5.93;;;;;;;19.39;74.24;101513.00;5100760;27;20043;-73
2022/05/20 01:14:26;;;;;;;10.73;6.50;;;;;;;19.51;74.20;101510.41;5109618;27;20101;-73
2022/05/20 01:16:53;;;;;;;10.43;6.93;;;;;;;18.98;75.94;101525.06;5101897;27;20579;-73
2022/05/20 01:19:29;;;;;;;10.38;7.43;;;;;;;18.97;76.84;101532.19;5109190;27;20051;-73
2022/05/20 01:21:57;;;;;;;12.30;7.60;;;;;;;19.15;76.46;101528.13;5110164;27;20066;-73
2022/05/20 01:24:25;;;;;;;12.20;7.28;;;;;;;18.99;77.22;101530.28;5110828;27;20555;-73
2022/05/20 01:26:51;;;;;;;9.80;7.53;;;;;;;19.14;76.73;101531.75;5110161;27;20051;-73
2022/05/20 01:29:18;;;;;;;12.13;7.95;;;;;;;19.40;76.12;101522.66;5109950;27;20108;-73
2022/05/20 01:31:44;;;;;;;13.63;8.43;;;;;;;19.38;76.17;101521.94;5110520;27;20047;-72
2022/05/20 01:34:10;;;;;;;12.55;10.07;;;;;;;19.24;76.72;101518.63;5111309;27;20067;-73
2022/05/20 01:36:37;;;;;;;17.10;10.05;;;;;;;19.37;76.29;101519.38;5110732;28;20055;-73
2022/05/20 01:39:04;;;;;;;16.65;11.02;;;;;;;19.46;76.25;101524.06;5110505;27;20116;-73
2022/05/20 01:41:38;;;;;;;17.67;10.48;;;;;;;19.61;75.40;101538.84;5104726;27;20051;-73
2022/05/20 01:44:12;;;;;;;15.38;11.60;;;;;;;19.42;76.46;101527.91;5116836;27;20487;-73
2022/05/20 01:46:41;;;;;;;19.77;13.57;;;;;;;19.32;76.51;101522.41;5112960;27;20658;-73
2022/05/20 01:49:31;;;;;;;17.40;12.90;;;;;;;19.17;77.48;101523.56;5110035;27;20058;-72
2022/05/20 01:52:06;;;;;;;15.82;12.18;;;;;;;19.22;77.52;101534.69;5110808;27;20108;-73
2022/05/20 01:54:40;;;;;;;18.35;13.27;;;;;;;19.23;77.19;101536.41;5110715;27;20151;-73
2022/05/20 01:57:15;;;;;;;16.73;12.90;;;;;;;19.38;76.80;101537.03;5110579;27;20047;-73
2022/05/20 01:59:47;;;;;;;16.95;13.18;;;;;;;19.41;76.18;101534.16;5109423;27;20484;-73
2022/05/20 02:02:24;;;;;;;17.42;14.10;;;;;;;19.58;75.14;101533.75;5110337;28;20112;-73
2022/05/20 02:04:56;;;;;;;20.17;14.85;;;;;;;19.35;76.23;101535.47;5111318;27;20055;-73
2022/05/20 02:07:27;;;;;;;17.48;13.75;;;;;;;19.11;76.58;101533.78;5115352;27;20039;-73
2022/05/20 02:09:59;;;;;;;18.13;14.63;;;;;;;18.74;78.63;101540.97;5111303;28;20061;-73
2022/05/20 02:12:29;;;;;;;;;;;;;;;18.96;77.55;101535.78;5112245;27;20054;-73
2022/05/20 02:15:01;;;;;;;21.88;15.05;;;;;;;19.01;76.94;101543.44;5112411;27;19973;-73
2022/05/20 02:17:34;;;;;;;15.50;13.90;;;;;;;19.54;74.39;101531.44;5111000;27;20490;-72
2022/05/20 02:20:05;;;;;;;17.75;13.98;;;;;;;19.51;74.46;101527.19;5111843;28;20048;-73
2022/05/20 02:22:38;;;;;;;18.33;14.32;;;;;;;19.20;75.77;101528.66;5112522;27;20479;-73
2022/05/20 02:25:06;;;;;;;;;;;;;;;19.30;75.42;101534.13;5112118;27;20065;-73
2022/05/20 02:27:39;;;;;;;18.80;14.55;;;;;;;19.17;75.58;101534.22;5109964;27;20378;-73
2022/05/20 02:30:10;;;;;;;20.63;15.27;;;;;;;19.30;75.44;101537.63;5112005;27;20055;-73
2022/05/20 02:32:42;;;;;;;24.15;15.50;;;;;;;19.21;75.39;101532.16;5111845;27;20043;-73
2022/05/20 02:35:09;;;;;;;19.17;14.80;;;;;;;19.18;75.19;101541.19;5112463;27;20061;-73
2022/05/20 02:37:37;;;;;;;19.83;15.05;;;;;;;19.02;76.58;101548.63;5112393;27;20088;-73
2022/05/20 02:40:06;;;;;;;22.75;15.18;;;;;;;19.31;74.93;101552.63;5108140;27;20040;-73
2022/05/20 02:42:33;;;;;;;25.35;16.38;;;;;;;19.45;74.55;101554.25;5109775;27;20047;-73
2022/05/20 02:45:01;;;;;;;21.92;15.10;;;;;;;19.80;73.55;101556.91;5113010;27;20483;-74
2022/05/20 02:47:31;;;;;;;19.45;15.30;;;;;;;19.78;73.49;101550.84;5111740;27;20483;-73
2022/05/20 02:49:57;;;;;;;20.98;15.93;;;;;;;20.04;72.64;101556.78;5122130;27;20117;-74
2022/05/20 02:52:24;;;;;;;22.10;15.35;;;;;;;19.97;72.77;101552.91;5119634;27;20043;-73
2022/05/20 02:54:50;;;;;;;23.92;15.88;;;;;;;19.94;72.58;101562.00;5111005;27;20047;-73
2022/05/20 02:57:17;;;;;;;20.90;15.88;;;;;;;19.29;75.56;101559.03;5111795;27;20493;-73
2022/05/20 03:05:13;;;;;;;21.65;15.88;;;;;;;19.34;75.53;101556.84;5111712;27;20068;-73
2022/05/20 03:07:39;;;;;;;23.15;16.05;;;;;;;19.42;75.32;101558.03;5112070;28;20047;-73
2022/05/20 03:10:06;;;;;;;23.80;16.30;;;;;;;19.46;74.72;101555.13;5107524;28;20100;-73
2022/05/20 03:12:35;;;;;;;30.50;18.33;;;;;;;19.58;73.89;101555.03;5109536;27;20547;-73
2022/05/20 03:15:04;;;;;;;25.25;17.17;;;;;;;19.66;73.45;101559.78;5111310;27;20493;-73
2022/05/20 03:17:30;;;;;;;25.63;17.45;;;;;;;19.97;72.33;101563.56;5110398;27;20046;-73
2022/05/20 03:19:56;;;;;;;20.60;16.30;;;;;;;20.13;71.18;101554.28;5109365;27;20051;-73
2022/05/20 03:22:23;;;;;;;27.25;17.08;;;;;;;19.89;72.39;101558.84;5111335;27;20048;-73
2022/05/20 03:24:49;;;;;;;23.70;17.73;;;;;;;19.97;71.79;101553.75;5110981;27;20124;-73
2022/05/20 03:27:16;;;;;;;24.10;17.20;;;;;;;20.20;70.84;101551.97;5111221;27;20052;-73
2022/05/20 03:29:43;;;;;;;23.08;17.92;;;;;;;19.84;72.28;101559.19;5093654;27;20415;-73
2022/05/20 03:32:11;;;;;;;20.05;16.35;;;;;;;19.25;74.19;101571.69;5099811;27;20039;-73
2022/05/20 03:34:38;;;;;;;26.77;18.30;;;;;;;19.33;74.27;101571.09;5131837;27;20046;-74
2022/05/20 03:37:05;;;;;;;23.13;17.95;;;;;;;19.74;73.19;101573.31;5130416;27;20042;-74
2022/05/20 03:39:32;;;;;;;26.05;17.65;;;;;;;19.59;73.96;101566.50;5116934;27;20624;-74
2022/05/20 03:41:59;;;;;;;26.30;18.33;;;;;;;19.59;73.87;101571.81;5111238;27;20043;-74
2022/05/20 03:44:26;;;;;;;27.52;18.13;;;;;;;19.70;73.79;101561.22;5111175;27;20554;-74
2022/05/20 03:46:54;;;;;;;28.10;18.55;;;;;;;19.79;73.10;101568.50;5110297;27;20044;-73
2022/05/20 03:49:25;;;;;;;24.52;17.98;;;;;;;19.98;72.31;101571.44;5110644;27;20048;-73
2022/05/20 03:51:53;;;;;;;30.02;19.20;;;;;;;20.01;71.81;101565.03;5110218;27;20051;-73
2022/05/20 03:54:22;;;;;;;27.40;18.75;;;;;;;20.16;70.91;101574.47;5110270;27;20048;-73
2022/05/20 03:56:49;;;;;;;23.23;17.00;;;;;;;20.07;71.32;101573.38;5110958;27;20040;-73
2022/05/20 03:59:16;;;;;;;24.50;17.98;;;;;;;19.73;72.36;101574.31;5130755;27;20039;-73
2022/05/20 04:01:58;;;;;;;21.50;16.77;;;;;;;19.46;73.75;101587.03;5131049;27;20035;-73
2022/05/20 04:04:28;;;;;;;23.13;17.83;;;;;;;19.50;73.66;101584.03;5131377;27;20039;-73
2022/05/20 04:06:55;;;;;;;25.00;18.73;;;;;;;18.67;77.56;101595.53;5129700;27;20039;-73
2022/05/20 04:09:21;;;;;;;22.48;17.80;;;;;;;18.53;78.88;101600.97;5130853;27;20043;-73
2022/05/20 04:11:52;;;;;;;25.77;18.75;;;;;;;19.11;76.65;101606.44;5111777;27;20043;-73
2022/05/20 04:14:18;;;;;;;25.38;18.10;;;;;;;19.00;76.48;101606.38;5109863;27;20108;-73
2022/05/20 04:16:44;;;;;;;25.30;19.15;;;;;;;19.03;76.71;101610.63;5113996;27;20059;-73
2022/05/20 04:19:11;;;;;;;25.45;18.58;;;;;;;19.03;76.79;101611.44;5109068;27;20100;-73
2022/05/20 04:21:41;;;;;;;27.65;18.25;;;;;;;18.82;77.84;101611.22;5109824;28;20047;-74
2022/05/20 04:24:08;;;;;;;29.13;18.90;;;;;;;19.14;77.01;101608.84;5110048;27;20047;-73
2022/05/20 04:26:34;;;;;;;26.27;19.98;;;;;;;19.43;75.98;101614.72;5114674;27;20096;-73
2022/05/20 04:29:01;;;;;;;30.27;19.67;;;;;;;19.42;76.06;101613.03;5130091;27;20175;-73
2022/05/20 04:31:27;;;;;;;28.55;19.27;;;;;;;19.65;74.99;101613.94;5130523;27;20060;-73
2022/05/20 04:33:53;;;;;;;28.20;19.70;;;;;;;19.98;73.46;101610.53;5130230;27;20047;-73
2022/05/20 04:36:20;;;;;;;24.17;19.35;;;;;;;19.84;73.90;101622.25;5126753;27;20039;-73
2022/05/20 04:38:47;;;;;;;31.92;20.20;;;;;;;19.99;73.76;101622.88;5109507;28;20104;-74
2022/05/20 04:47:00;;;;;;;31.20;19.27;;;;;;;18.73;79.31;101633.16;5114779;27;20070;-73
2022/05/20 04:49:27;;;;;;;25.75;19.33;;;;;;;19.37;76.69;101633.75;5112878;27;20050;-73
2022/05/20 04:51:54;;;;;;;29.67;20.17;;;;;;;19.48;76.17;101627.66;5093268;27;20053;-73
2022/05/20 04:57:09;;;;;;;26.90;19.20;;;;;;;20.05;73.75;101617.91;5115125;27;20126;-73
2022/05/20 04:59:36;;;;;;;27.67;19.90;;;;;;;20.10;73.90;101620.22;5133096;27;20092;-73
2022/05/20 05:02:03;;;;;;;26.48;19.10;;;;;;;19.95;74.45;101622.25;5133778;27;20087;-73
2022/05/20 05:04:29;;;;;;;27.67;20.15;;;;;;;20.18;73.17;101623.13;5134403;27;20102;-73
2022/05/20 05:06:56;;;;;;;28.83;20.13;;;;;;;19.45;75.83;101626.09;5125714;27;20043;-72
2022/05/20 05:09:23;;;;;;;25.05;19.15;;;;;;;19.92;74.83;101626.00;5112750;28;20056;-73
2022/05/20 05:11:50;;;;;;;26.20;19.65;;;;;;;20.33;73.04;101638.78;5112965;27;20051;-73
2022/05/20 05:14:16;;;;;;;23.63;17.88;;;;;;;20.85;71.19;101632.84;5112765;28;20047;-73
2022/05/20 05:16:44;;;;;;;28.88;19.05;;;;;;;20.69;71.99;101629.72;5115226;27;20140;-73
2022/05/20 05:19:11;;;;;;;26.85;17.45;;;;;;;20.80;71.43;101636.84;5111935;27;20044;-73
2022/05/20 05:21:38;;;;;;;26.23;17.08;;;;;;;20.77;70.43;101635.25;5111291;27;20539;-73
2022/05/20 05:24:05;;;;;;;22.23;16.38;;;;;;;21.62;67.34;101632.72;5113013;27;20043;-73
2022/05/20 05:26:35;;;;;;;23.02;16.42;;;;;;;21.74;66.52;101635.22;5114049;27;20554;-74
2022/05/20 05:29:03;;;;;;;23.08;16.15;;;;;;;21.67;66.66;101636.72;5112436;28;20059;-74
2022/05/20 05:31:29;;;;;;;27.80;15.93;;;;;;;22.37;64.27;101643.22;5113444;28;20087;-74
2022/05/20 05:33:55;;;;;;;19.35;15.85;;;;;;;22.29;63.56;101642.06;5113303;28;20126;-74
2022/05/20 05:36:22;;;;;;;20.55;15.07;;;;;;;22.36;63.40;101641.56;5112828;28;20183;-74
2022/05/20 05:38:48;;;;;;;17.25;14.00;;;;;;;22.76;62.74;101647.81;5112826;27;20044;-74
2022/05/20 05:41:17;;;;;;;17.55;13.45;;;;;;;23.02;60.88;101646.31;5113142;27;20047;-74
2022/05/20 05:43:45;;;;;;;16.90;13.93;;;;;;;23.02;60.32;101646.31;5112904;28;20122;-74
2022/05/20 05:46:11;;;;;;;18.65;12.60;;;;;;;23.19;60.21;101648.31;5109879;27;20064;-73
2022/05/20 05:48:38;;;;;;;15.02;12.82;;;;;;;22.70;60.60;101640.31;5114027;27;20490;-74
2022/05/20 05:51:05;;;;;;;17.00;12.73;;;;;;;22.73;60.33;101638.22;5113232;27;20043;-74
2022/05/20 05:53:31;;;;;;;16.63;11.50;;;;;;;22.86;59.94;101639.81;5117061;28;20400;-74
2022/05/20 05:55:59;;;;;;;14.95;12.07;;;;;;;22.96;60.09;101636.16;5137812;27;20027;-74
2022/05/20 05:58:26;;;;;;;20.50;13.25;;;;;;;23.35;58.43;101630.88;5134984;28;20046;-74
2022/05/20 06:00:56;;;;;;;15.90;10.98;;;;;;;23.54;59.13;101628.25;5118070;27;21342;-74
2022/05/20 06:03:23;;;;;;;19.60;11.73;;;;;;;23.64;59.90;101631.75;5117711;27;20073;-74
2022/05/20 06:05:49;;;;;;;17.42;13.93;;;;;;;23.85;58.44;101640.47;5117220;28;20723;-74
2022/05/20 06:08:17;;;;;;;19.08;14.10;;;;;;;23.70;59.08;101639.22;5134421;27;20047;-74
2022/05/20 06:10:44;;;;;;;16.88;13.50;;;;;;;23.82;58.93;101631.88;5136405;27;20047;-74
2022/05/20 06:13:14;;;;;;;18.73;13.85;;;;;;;23.99;58.28;101620.41;5136051;27;20100;-74
2022/05/20 06:15:41;;;;;;;18.52;13.40;;;;;;;24.04;57.26;101616.31;5134889;27;20530;-74
2022/05/20 06:18:08;;;;;;;19.00;12.95;;;;;;;24.16;58.11;101623.25;5115580;27;20073;-74
2022/05/20 06:20:35;;;;;;;19.67;13.55;;;;;;;24.32;55.57;101627.13;5114174;27;20108;-74
2022/05/20 06:23:02;;;;;;;18.17;12.60;;;;;;;23.96;57.10;101620.69;5114981;27;20105;-74
2022/05/20 06:25:28;;;;;;;17.67;12.27;;;;;;;24.06;56.84;101625.03;5114085;27;20045;-75
2022/05/20 06:27:55;;;;;;;17.25;12.77;;;;;;;24.39;56.82;101633.59;5114459;27;20203;-74
2022/05/20 06:30:22;;;;;;;16.65;13.10;;;;;;;24.07;56.46;101637.47;5114129;27;20050;-74
2022/05/20 06:32:49;;;;;;;18.50;12.35;;;;;;;24.94;55.71;101639.84;5114404;28;20035;-74
2022/05/20 06:40:47;;;;;;;41.45;12.05;;;;;;;25.01;54.11;101641.78;5113491;27;20058;-76
2022/05/20 06:43:14;;;;;;;14.93;12.13;;;;;;;24.71;52.60;101653.63;5114138;28;20044;-76
2022/05/20 06:45:41;;;;;;;20.85;13.63;;;;;;;24.51;53.27;101646.66;5111838;27;20052;-75
2022/05/20 06:48:08;;;;;;;15.32;11.95;;;;;;;24.67;53.67;101646.03;5116607;27;20491;-75
2022/05/20 06:50:38;;;;;;;19.40;12.07;;;;;;;24.68;54.67;101645.03;5123856;27;20103;-74
2022/05/20 06:53:05;;;;;;;16.02;11.88;;;;;;;24.94;53.19;101640.72;5119960;27;20065;-74
2022/05/20 06:55:31;;;;;;;18.35;12.32;;;;;;;25.13;52.87;101639.72;5113503;27;20047;-75
2022/05/20 06:57:58;;;;;;;16.15;12.43;;;;;;;25.27;54.28;101641.91;5125826;27;20035;-74
2022/05/20 07:00:25;;;;;;;18.48;13.10;;;;;;;25.11;52.85;101639.88;5112609;28;20112;-74
2022/05/20 07:02:51;;;;;;;19.95;12.30;;;;;;;25.18;52.65;101637.44;5112227;27;20039;-74
2022/05/20 07:05:18;;;;;;;17.50;12.13;;;;;;;25.28;52.74;101634.66;5112832;28;20061;-74
2022/05/20 07:07:46;;;;;;;18.65;12.38;;;;;;;25.53;51.55;101631.25;5112663;27;20047;-74
2022/05/20 07:10:13;;;;;;;16.60;12.38;;;;;;;25.33;50.96;101635.91;5112243;28;20058;-74
2022/05/20 07:12:40;;;;;;;21.20;12.30;;;;;;;25.89;50.83;101637.44;5111377;27;20047;-74
2022/05/20 07:15:08;;;;;;;14.13;11.25;;;;;;;25.91;52.59;101643.47;5112014;27;20438;-74
2022/05/20 07:17:35;;;;;;;15.77;11.25;;;;;;;25.48;50.28;101641.59;5111841;27;20108;-74
2022/05/20 07:20:04;;;;;;;16.75;12.30;;;;;;;25.83;48.39;101646.94;5111687;27;20051;-74
2022/05/20 07:22:30;;;;;;;14.57;10.88;;;;;;;26.09;48.95;101644.28;5111658;27;20096;-74
2022/05/20 07:24:58;;;;;;;15.02;11.73;;;;;;;25.83;50.06;101646.94;5111223;27;20047;-74
2022/05/20 07:27:24;;;;;;;19.05;11.50;;;;;;;25.40;50.00;101634.28;5111388;27;20060;-74
2022/05/20 07:29:51;;;;;;;15.77;12.05;;;;;;;25.30;50.99;101641.59;5097077;27;20071;-74
2022/05/20 07:32:17;;;;;;;14.98;11.23;;;;;;;25.52;49.73;101640.31;5104385;27;20051;-74
2022/05/20 07:34:44;;;;;;;17.13;12.82;;;;;;;25.61;49.51;101636.69;5097779;28;20047;-74
2022/05/20 07:37:10;;;;;;;16.98;11.20;;;;;;;25.27;51.04;101638.38;5104387;27;20055;-74
2022/05/20 07:39:36;;;;;;;16.65;11.35;;;;;;;24.80;52.09;101638.47;5107628;27;20100;-74
2022/05/20 07:42:05;;;;;;;16.17;10.45;;;;;;;24.72;54.70;101627.66;5110665;28;20047;-75
2022/05/20 07:44:33;;;;;;;15.05;11.30;;;;;;;25.05;52.26;101627.06;5110085;27;20035;-75
2022/05/20 07:46:59;;;;;;;20.35;11.57;;;;;;;25.44;49.87;101627.63;5100944;28;20039;-74
2022/05/20 07:49:26;;;;;;;12.43;10.63;;;;;;;25.38;50.66;101627.41;5113058;27;20047;-74
2022/05/20 07:51:57;;;;;;;16.52;11.60;;;;;;;25.41;50.12;101619.88;5111300;27;20062;-74
2022/05/20 07:54:25;;;;;;;15.30;11.90;;;;;;;25.13;49.62;101619.09;5108863;27;20139;-74
2022/05/20 07:56:57;;;;;;;15.05;10.40;;;;;;;24.84;50.83;101615.75;5108890;27;20434;-75
2022/05/20 07:59:30;;;;;;;15.75;11.38;;;;;;;24.70;52.19;101619.75;5112610;27;24563;-75
2022/05/20 08:01:57;;;;;;;17.92;11.70;;;;;;;24.59;52.38;101621.78;5109713;28;20056;-76
2022/05/20 08:07:13;;;;;;;15.20;11.68;;;;;;;24.93;51.11;101617.53;5109391;28;20480;-75
2022/05/20 08:09:39;;;;;;;15.38;12.05;;;;;;;25.33;49.53;101611.75;5108803;28;20483;-75
2022/05/20 08:12:06;;;;;;;16.58;11.55;;;;;;;25.00;50.30;101621.31;5108621;28;20108;-75
2022/05/20 08:14:34;;;;;;;15.27;11.65;;;;;;;25.14;52.70;101611.88;5109307;28;20042;-75
2022/05/20 08:17:02;;;;;;;15.23;10.88;;;;;;;25.80;50.71;101623.06;5101554;27;20040;-75
2022/05/20 08:19:29;;;;;;;17.20;11.27;;;;;;;25.54;48.08;101612.28;5109055;27;20088;-74
2022/05/20 08:21:56;;;;;;;15.07;11.68;;;;;;;25.45;49.55;101607.84;5106527;27;20108;-76
2022/05/20 08:24:23;;;;;;;13.18;10.88;;;;;;;25.34;52.23;101609.91;5104578;27;20059;-75
2022/05/20 08:26:50;;;;;;;14.13;11.85;;;;;;;25.57;49.57;101624.59;5101152;27;20100;-76
2022/05/20 08:29:16;;;;;;;18.67;11.98;;;;;;;26.00;48.45;101611.16;5118274;27;20070;-76
2022/05/20 08:31:45;;;;;;;14.15;10.88;;;;;;;25.88;49.12;101620.47;5129060;27;20087;-75
2022/05/20 08:34:13;;;;;;;16.38;10.80;;;;;;;25.79;47.77;101626.78;5128742;27;20035;-73
2022/05/20 08:36:40;;;;;;;14.43;10.70;;;;;;;25.41;48.22;101610.97;5127535;27;20095;-73
2022/05/20 08:39:10;;;;;;;16.00;11.27;;;;;;;25.22;49.05;101605.75;5128008;27;20487;-73
2022/05/20 08:41:38;;;;;;;11.88;9.23;;;;;;;25.35;50.02;101596.31;5129823;27;20055;-73
2022/05/20 08:44:08;;;;;;;12.07;9.00;;;;;;;25.18;49.19;101600.69;5129537;27;20099;-73
2022/05/20 08:46:35;;;;;;;14.15;9.77;;;;;;;25.38;49.54;101601.41;5113389;27;20036;-73
2022/05/20 08:49:03;;;;;;;13.48;10.02;;;;;;;25.77;48.36;101598.38;5108543;27;20101;-73
2022/05/20 08:51:33;;;;;;;15.63;10.45;;;;;;;25.98;48.22;101594.31;5108644;27;20047;-73
2022/05/20 08:54:03;;;;;;;15.23;9.95;;;;;;;26.54;49.54;101590.28;5108180;27;20052;-73
2022/05/20 08:56:30;;;;;;;12.30;9.25;;;;;;;26.54;47.80;101585.72;5109258;27;20065;-73
2022/05/20 08:59:00;;;;;;;9.82;8.15;;;;;;;27.31;46.97;101597.25;5108235;28;20108;-73
2022/05/20 09:01:28;;;;;;;14.13;9.48;;;;;;;27.40;41.76;101593.53;5109116;28;20044;-72
2022/05/20 09:03:55;;;;;;;18.00;9.30;;;;;;;27.29;42.99;101581.22;5106508;28;20430;-72
2022/05/20 09:06:24;;;;;;;13.35;8.68;;;;;;;27.68;45.45;101578.72;5108147;28;20097;-72
2022/05/20 09:09:05;;;;;;;11.95;7.80;;;;;;;28.07;43.94;101565.34;5113215;27;20112;-72
2022/05/20 09:11:32;;;;;;;13.17;7.97;;;;;;;27.95;44.07;101575.66;5129146;27;20038;-72
2022/05/20 09:16:58;;;;;;;9.98;8.10;;;;;;;28.32;40.35;101558.88;5110179;27;20050;-73
2022/05/20 09:19:28;;;;;;;14.77;8.40;;;;;;;28.03;42.80;101559.47;5107455;27;20043;-72
2022/05/20 09:22:04;;;;;;;10.90;7.93;;;;;;;27.63;40.44;101550.63;5105431;27;20036;-72
2022/05/20 09:24:38;;;;;;;10.40;7.93;;;;;;;28.08;41.25;101548.19;5107852;27;20039;-72
2022/05/20 09:27:07;;;;;;;10.88;8.25;;;;;;;27.88;42.27;101547.69;5109172;27;20046;-72
2022/05/20 09:29:39;;;;;;;11.35;7.72;;;;;;;28.13;42.35;101545.81;5111209;27;20051;-72
2022/05/20 09:32:14;;;;;;;6.40;4.95;;;;;;;27.98;37.65;101534.03;5112237;28;20049;-72
2022/05/20 09:34:42;;;;;;;8.68;5.15;;;;;;;28.00;37.91;101538.25;5120346;27;20112;-72
2022/05/20 09:37:20;;;;;;;10.20;5.45;;;;;;;27.95;37.91;101535.22;5117467;27;20043;-72
2022/05/20 09:39:50;;;;;;;9.27;5.68;;;;;;;27.98;39.51;101544.81;5124936;27;20396;-72
2022/05/20 09:42:20;;;;;;;8.55;5.60;;;;;;;28.47;39.53;101545.50;5111842;28;20047;-72
2022/05/20 09:44:48;;;;;;;9.18;5.20;;;;;;;28.18;40.64;101539.91;5111716;27;20462;-73
2022/05/20 09:47:21;;;;;;;10.25;5.65;;;;;;;28.01;38.55;101533.69;5104680;27;20051;-72
2022/05/20 09:49:52;;;;;;;6.95;4.78;;;;;;;27.96;38.34;101531.50;5111123;27;20047;-72
2022/05/20 09:52:31;;;;;;;7.68;4.50;;;;;;;27.42;39.32;101530.38;5111174;27;20054;-72
2022/05/20 09:55:02;;;;;;;8.77;5.15;;;;;;;27.52;38.56;101523.03;5111241;27;20128;-72
2022/05/20 09:57:36;;;;;;;8.10;5.07;;;;;;;26.74;42.43;101526.28;5111897;27;20407;-72
2022/05/20 10:00:08;;;;;;;9.70;5.95;;;;;;;26.64;42.18;101526.44;5110622;28;20040;-72
2022/05/20 10:02:42;;;;;;;12.70;7.28;;;;;;;26.52;42.93;101520.50;5111282;28;20042;-72
2022/05/20 10:05:15;;;;;;;8.00;4.80;;;;;;;27.31;42.05;101519.13;5112408;27;20168;-72
2022/05/20 10:07:54;;;;;;;7.32;5.45;;;;;;;27.86;40.32;101513.88;5111655;27;20519;-73
2022/05/20 10:10:28;;;;;;;8.93;5.50;;;;;;;28.30;39.21;101522.31;5110387;27;20424;-73
2022/05/20 10:12:58;;;;;;;8.45;6.25;;;;;;;28.25;40.61;101505.81;5111898;27;20054;-72
2022/05/20 10:15:29;;;;;;;7.35;5.88;;;;;;;28.76;39.08;101507.91;5118014;27;20093;-71
2022/05/20 10:18:09;;;;;;;7.28;4.88;;;;;;;29.05;39.38;101501.78;5103787;27;20837;-71
2022/05/20 10:20:40;;;;;;;5.57;4.78;;;;;;;29.44;39.17;101488.16;5108886;27;20036;-72
2022/05/20 10:23:14;;;;;;;6.93;5.50;;;;;;;29.24;37.60;101495.03;5093727;27;20048;-72
2022/05/20 10:25:50;;;;;;;10.93;6.35;;;;;;;29.12;38.14;101488.44;5110494;27;20508;-72
2022/05/20 10:34:09;;;;;;;11.30;7.43;;;;;;;29.59;39.51;101475.50;5111263;27;20066;-72
2022/05/20 10:36:45;;;;;;;9.85;6.30;;;;;;;29.82;39.03;101462.72;5107133;27;20063;-72
2022/05/20 10:39:25;;;;;;;11.82;8.25;;;;;;;30.00;37.42;101465.09;5109931;27;20040;-72
2022/05/20 10:42:07;;;;;;;8.50;5.80;;;;;;;30.53;38.09;101463.84;5110792;27;20260;-72
2022/05/20 10:50:38;;;;;;;7.93;5.40;;;;;;;28.93;38.18;101443.88;5110307;27;20070;-72
2022/05/20 10:53:14;;;;;;;17.50;4.97;;;;;;;28.90;35.91;101430.69;5110681;27;20044;-73
2022/05/20 10:56:00;;;;;;;11.23;5.05;;;;;;;29.06;39.68;101418.94;5108917;27;20536;-71
2022/05/20 10:58:54;;;;;;;7.80;5.05;;;;;;;29.72;39.04;101421.63;5107664;28;20047;-71
2022/05/20 11:01:35;;;;;;;7.25;4.50;;;;;;;29.85;34.52;101407.47;5119721;27;20047;-71
2022/05/20 11:04:20;;;;;;;6.57;4.45;;;;;;;29.28;35.38;101402.69;5115160;27;20062;-70
2022/05/20 11:07:31;;;;;;;6.40;3.88;;;;;;;30.05;38.22;101410.41;5109402;27;20043;-71
2022/05/20 11:10:14;;;;;;;8.68;4.25;;;;;;;30.40;36.89;101399.59;5065089;28;20152;-71
2022/05/20 11:12:51;;;;;;;8.68;4.57;;;;;;;30.58;37.20;101385.63;5070116;28;20229;-71
2022/05/20 11:15:29;;;;;;;5.57;3.58;;;;;;;30.55;36.75;101383.31;5093697;28;20051;-71
2022/05/20 11:18:12;;;;;;;6.82;3.90;;;;;;;30.35;32.55;101384.94;5102827;27;20174;-71
2022/05/20 11:21:02;;;;;;;6.15;3.03;;;;;;;30.46;33.39;101375.50;5111716;27;20423;-71
2022/05/20 11:23:49;;;;;;;9.57;3.42;;;;;;;29.93;30.86;101370.34;5129525;27;20047;-71
2022/05/20 11:26:36;;;;;;;5.82;3.08;;;;;;;29.69;32.83;101373.34;5105925;27;20106;-71
2022/05/20 11:29:23;;;;;;;6.82;3.05;;;;;;;30.29;31.18;101366.78;5109227;28;20349;-71
2022/05/20 11:31:55;;;;;;;5.32;2.80;;;;;;;30.55;32.55;101366.25;5109812;27;20615;-71
2022/05/20 11:34:49;;;;;;;5.22;2.97;;;;;;;30.86;33.97;101358.56;5110024;28;20079;-71
2022/05/20 11:37:37;;;;;;;4.00;2.88;;;;;;;30.80;34.07;101359.38;5110268;28;20131;-71
2022/05/20 11:40:21;;;;;;;10.50;3.42;;;;;;;30.72;32.50;101352.22;5109397;28;20043;-71
2022/05/20 11:43:06;;;;;;;7.80;3.05;;;;;;;29.82;31.66;101359.97;5129269;27;20039;-71
2022/05/20 11:45:43;;;;;;;6.50;2.85;;;;;;;29.00;32.78;101359.25;5127629;27;20043;-71
2022/05/20 11:48:25;;;;;;;14.93;3.25;;;;;;;28.38;36.05;101360.44;5109719;27;20043;-71
2022/05/20 11:51:12;;;;;;;14.13;3.22;;;;;;;28.54;34.25;101358.44;5095165;27;20039;-71
2022/05/20 11:53:44;;;;;;;6.25;3.67;;;;;;;28.71;35.10;101352.94;5127522;27;20114;-71
2022/05/20 11:56:19;;;;;;;7.80;3.83;;;;;;;28.57;35.17;101351.00;5107824;27;20047;-71
2022/05/20 11:58:51;;;;;;;7.00;4.70;;;;;;;27.51;36.69;101348.94;5108754;27;20040;-71
2022/05/20 12:01:20;;;;;;;5.85;4.40;;;;;;;26.76;39.24;101346.66;5116447;27;20070;-71
2022/05/20 12:06:35;;;;;;;5.55;4.30;;;;;;;27.21;40.12;101338.03;5109806;27;20055;-71
2022/05/20 12:09:22;;;;;;;5.82;4.70;;;;;;;27.59;39.51;101339.97;5105553;27;20047;-71